createdAt,value
2023-01-27T00:00:54.706Z,-0.60
2023-01-27T00:03:21.981Z,-0.60
2023-01-27T00:05:49.416Z,-0.50
2023-01-27T00:08:16.487Z,-0.50
2023-01-27T00:10:43.629Z,-0.40
2023-01-27T00:13:28.250Z,-0.40
2023-01-27T00:15:55.661Z,-0.50
2023-01-27T00:18:23.679Z,-0.50
2023-01-27T00:21:09.768Z,-0.50
2023-01-27T00:23:56.284Z,-0.50
2023-01-27T00:26:23.456Z,-0.50
2023-01-27T00:28:50.293Z,-0.50
2023-01-27T00:31:36.678Z,-0.40
2023-01-27T00:34:10.990Z,-0.40
2023-01-27T00:36:42.263Z,-0.30
2023-01-27T00:39:11.147Z,-0.40
2023-01-27T00:41:38.880Z,-0.40
2023-01-27T00:44:07.120Z,-0.40
2023-01-27T00:46:34.839Z,-0.30
2023-01-27T00:49:01.724Z,-0.30
2023-01-27T00:51:28.552Z,-0.30
2023-01-27T00:53:55.417Z,-0.20
2023-01-27T00:56:22.335Z,-0.20
2023-01-27T00:58:49.228Z,-0.20
2023-01-27T01:01:17.411Z,-0.10
2023-01-27T01:03:44.860Z,-0.10
2023-01-27T01:06:14.318Z,0.00
2023-01-27T01:08:41.494Z,-0.10
2023-01-27T01:11:11.171Z,-0.10
2023-01-27T01:13:37.951Z,-0.10
2023-01-27T01:16:07.228Z,-0.20
2023-01-27T01:18:34.038Z,-0.20
2023-01-27T01:21:01.170Z,-0.20
2023-01-27T01:23:29.755Z,-0.30
2023-01-27T01:25:57.876Z,-0.40
2023-01-27T01:28:26.072Z,-0.30
2023-01-27T01:30:52.973Z,-0.30
2023-01-27T01:33:19.819Z,-0.30
2023-01-27T01:35:46.755Z,-0.50
2023-01-27T01:38:13.564Z,-0.40
2023-01-27T01:40:44.369Z,-0.50
2023-01-27T01:43:16.631Z,-0.40
2023-01-27T01:45:46.527Z,-0.40
2023-01-27T01:48:13.324Z,-0.40
2023-01-27T01:50:42.769Z,-0.50
2023-01-27T01:53:11.188Z,-0.50
2023-01-27T01:55:39.743Z,-0.50
2023-01-27T01:58:08.353Z,-0.50
2023-01-27T02:00:35.482Z,-0.50
2023-01-27T02:03:03.530Z,-0.40
2023-01-27T02:05:34.836Z,-0.40
2023-01-27T02:08:09.599Z,-0.30
2023-01-27T02:10:36.490Z,-0.50
2023-01-27T02:13:03.516Z,-0.60
2023-01-27T02:15:31.529Z,-0.70
2023-01-27T02:18:00.697Z,-0.80
2023-01-27T02:20:37.564Z,-0.80
2023-01-27T02:23:27.805Z,-0.80
2023-01-27T02:26:00.499Z,-0.90
2023-01-27T02:28:29.563Z,-0.80
2023-01-27T02:30:56.703Z,-0.70
2023-01-27T02:33:23.921Z,-0.80
2023-01-27T02:36:08.620Z,-0.80
2023-01-27T02:38:47.449Z,-0.70
2023-01-27T02:41:35.576Z,-0.70
2023-01-27T02:44:02.456Z,-0.80
2023-01-27T02:46:29.899Z,-0.80
2023-01-27T02:48:57.427Z,-0.80
2023-01-27T02:51:24.366Z,-0.80
2023-01-27T02:53:51.278Z,-0.90
2023-01-27T02:56:18.068Z,-0.80
2023-01-27T02:58:45.039Z,-0.70
2023-01-27T03:01:12.039Z,-0.80
2023-01-27T03:03:44.321Z,-0.80
2023-01-27T03:06:11.590Z,-0.80
2023-01-27T03:08:38.400Z,-0.80
2023-01-27T03:11:05.618Z,-0.70
2023-01-27T03:13:32.442Z,-0.80
2023-01-27T03:16:18.491Z,-0.90
2023-01-27T03:18:49.666Z,-0.80
2023-01-27T03:21:20.086Z,-0.80
2023-01-27T03:23:49.217Z,-0.90
2023-01-27T03:26:16.670Z,-0.90
2023-01-27T03:28:43.788Z,-1.00
2023-01-27T03:31:21.813Z,-1.00
2023-01-27T03:33:48.790Z,-0.90
2023-01-27T03:36:34.836Z,-1.00
2023-01-27T03:39:20.343Z,-0.80
2023-01-27T03:42:05.549Z,-0.90
2023-01-27T03:44:51.091Z,-0.80
2023-01-27T03:47:17.905Z,-0.90
2023-01-27T03:49:44.731Z,-0.90
2023-01-27T03:52:11.628Z,-0.90
2023-01-27T03:54:38.470Z,-0.70
2023-01-27T03:57:06.382Z,-0.80
2023-01-27T03:59:33.536Z,-0.70
2023-01-27T04:02:20.276Z,-0.80
2023-01-27T04:05:05.927Z,-0.80
2023-01-27T04:07:36.207Z,-0.80
2023-01-27T04:10:06.704Z,-0.80
2023-01-27T04:12:33.560Z,-0.80
2023-01-27T04:15:00.434Z,-0.70
2023-01-27T04:17:27.363Z,-0.80
2023-01-27T04:19:54.174Z,-0.80
2023-01-27T04:22:21.132Z,-0.80
2023-01-27T04:24:48.010Z,-0.90
2023-01-27T04:27:20.409Z,-0.90
2023-01-27T04:29:47.342Z,-0.90
2023-01-27T04:32:14.751Z,-0.90
2023-01-27T04:34:42.229Z,-0.80
2023-01-27T04:37:10.193Z,-0.90
2023-01-27T04:39:37.190Z,-0.90
2023-01-27T04:42:04.373Z,-0.90
2023-01-27T04:44:31.605Z,-0.90
2023-01-27T04:46:58.394Z,-0.90
2023-01-27T04:49:27.041Z,-0.80
2023-01-27T04:51:54.914Z,-0.80
2023-01-27T04:54:21.775Z,-0.80
2023-01-27T04:56:57.646Z,-0.80
2023-01-27T04:59:24.601Z,-0.80
2023-01-27T05:01:52.171Z,-0.90
2023-01-27T05:04:19.209Z,-1.00
2023-01-27T05:06:46.093Z,-1.00
2023-01-27T05:09:12.903Z,-1.10
2023-01-27T05:11:39.697Z,-1.10
2023-01-27T05:14:06.553Z,-0.90
2023-01-27T05:16:33.365Z,-0.80
2023-01-27T05:19:00.335Z,-0.70
2023-01-27T05:21:31.082Z,-0.80
2023-01-27T05:23:58.157Z,-0.80
2023-01-27T05:26:27.623Z,-0.60
2023-01-27T05:28:56.618Z,-0.60
2023-01-27T05:31:26.834Z,-0.70
2023-01-27T05:33:55.321Z,-0.70
2023-01-27T05:36:24.698Z,-0.80
2023-01-27T05:38:52.237Z,-0.80
2023-01-27T05:41:20.016Z,-0.70
2023-01-27T05:43:51.493Z,-0.70
2023-01-27T05:46:20.583Z,-0.80
2023-01-27T05:48:54.776Z,-0.70
2023-01-27T05:51:24.292Z,-0.80
2023-01-27T05:53:51.354Z,-0.80
2023-01-27T05:56:19.532Z,-0.80
2023-01-27T05:58:46.656Z,-0.80
2023-01-27T06:01:16.469Z,-0.80
2023-01-27T06:03:44.723Z,-0.80
2023-01-27T06:06:13.204Z,-0.80
2023-01-27T06:08:40.343Z,-0.80
2023-01-27T06:11:07.706Z,-0.90
2023-01-27T06:13:35.984Z,-0.80
2023-01-27T06:16:04.920Z,-0.90
2023-01-27T06:18:32.069Z,-1.00
2023-01-27T06:21:03.614Z,-1.00
2023-01-27T06:23:30.515Z,-1.00
2023-01-27T06:26:03.164Z,-0.90
2023-01-27T06:28:30.217Z,-0.90
2023-01-27T06:31:05.685Z,-1.00
2023-01-27T06:33:32.598Z,-1.00
2023-01-27T06:36:07.689Z,-1.00
2023-01-27T06:38:35.037Z,-0.90
2023-01-27T06:41:02.373Z,-0.90
2023-01-27T06:43:29.440Z,-0.90
2023-01-27T06:45:58.021Z,-0.60
2023-01-27T06:48:25.861Z,-0.10
2023-01-27T06:50:53.892Z,-0.30
2023-01-27T06:53:20.898Z,-0.20
2023-01-27T06:55:48.020Z,-0.10
2023-01-27T06:58:16.674Z,0.00
2023-01-27T07:00:43.525Z,0.20
2023-01-27T07:03:11.952Z,0.20
2023-01-27T07:05:41.175Z,0.40
2023-01-27T07:08:08.201Z,0.20
2023-01-27T07:10:35.068Z,0.30
2023-01-27T07:13:19.921Z,0.00
2023-01-27T07:15:47.024Z,0.00
2023-01-27T07:18:14.395Z,0.00
2023-01-27T07:20:42.148Z,-0.10
2023-01-27T07:23:10.753Z,-0.20
2023-01-27T07:25:37.990Z,-0.20
2023-01-27T07:28:05.570Z,-0.20
2023-01-27T07:30:37.526Z,-0.30
2023-01-27T07:33:06.665Z,-0.10
2023-01-27T07:35:34.022Z,-0.10
2023-01-27T07:38:06.301Z,-0.20
2023-01-27T07:40:36.558Z,-0.20
2023-01-27T07:43:04.095Z,-0.30
2023-01-27T07:45:31.218Z,-0.20
2023-01-27T07:48:07.144Z,-0.10
2023-01-27T07:50:35.188Z,-0.10
2023-01-27T07:53:03.687Z,0.00
2023-01-27T07:55:32.457Z,0.10
2023-01-27T07:57:59.364Z,0.10
2023-01-27T08:00:26.749Z,0.10
2023-01-27T08:02:57.689Z,0.20
2023-01-27T08:05:31.922Z,0.00
2023-01-27T08:08:05.891Z,-0.10
2023-01-27T08:10:34.430Z,-0.20
2023-01-27T08:13:02.895Z,-0.20
2023-01-27T08:15:29.837Z,-0.20
2023-01-27T08:17:57.954Z,-0.20
2023-01-27T08:20:26.548Z,-0.30
2023-01-27T08:22:53.716Z,-0.30
2023-01-27T08:25:21.302Z,-0.30
2023-01-27T08:27:52.928Z,-0.30
2023-01-27T08:30:20.531Z,-0.30
2023-01-27T08:32:48.075Z,-0.30
2023-01-27T08:35:14.999Z,-0.40
2023-01-27T08:37:41.847Z,-0.40
2023-01-27T08:40:09.390Z,-0.40
2023-01-27T08:42:36.248Z,-0.50
2023-01-27T08:45:03.905Z,-0.50
2023-01-27T08:47:30.803Z,-0.40
2023-01-27T08:49:57.585Z,-0.30
2023-01-27T08:52:24.496Z,-0.20
2023-01-27T08:54:51.283Z,-0.20
2023-01-27T08:57:18.532Z,-0.30
2023-01-27T08:59:46.203Z,-0.20
2023-01-27T09:02:13.523Z,-0.30
2023-01-27T09:04:43.886Z,-0.30
2023-01-27T09:07:10.828Z,-0.20
2023-01-27T09:09:37.610Z,-0.20
2023-01-27T09:12:04.542Z,-0.20
2023-01-27T09:14:31.373Z,-0.10
2023-01-27T09:16:58.204Z,0.00
2023-01-27T09:19:25.206Z,0.00
2023-01-27T09:21:52.060Z,0.00
2023-01-27T09:24:19.535Z,0.10
2023-01-27T09:26:46.644Z,0.10
2023-01-27T09:29:13.524Z,0.10
2023-01-27T09:31:40.422Z,0.10
2023-01-27T09:34:07.522Z,0.10
2023-01-27T09:36:41.113Z,0.10
2023-01-27T09:39:11.246Z,0.10
2023-01-27T09:41:59.248Z,0.20
2023-01-27T09:44:43.832Z,0.20
2023-01-27T09:47:19.971Z,0.20
2023-01-27T09:50:08.353Z,0.20
2023-01-27T09:52:54.708Z,0.20
2023-01-27T09:55:47.694Z,0.30
2023-01-27T09:58:46.465Z,0.20
2023-01-27T10:01:47.530Z,0.30
2023-01-27T10:04:26.444Z,0.20
2023-01-27T10:07:07.961Z,0.20
2023-01-27T10:10:05.782Z,0.20
2023-01-27T10:12:57.373Z,0.10
2023-01-27T10:15:51.099Z,0.20
2023-01-27T10:18:41.936Z,0.10
2023-01-27T10:21:36.089Z,0.20
2023-01-27T10:24:29.471Z,0.30
2023-01-27T10:27:01.537Z,1.20
2023-01-27T10:29:40.091Z,1.10
2023-01-27T10:32:30.260Z,0.80
2023-01-27T10:35:13.904Z,0.50
2023-01-27T10:38:09.809Z,0.40
2023-01-27T10:40:51.741Z,0.20
2023-01-27T10:43:31.683Z,0.20
2023-01-27T10:46:08.920Z,0.20
2023-01-27T10:48:46.098Z,0.20
2023-01-27T10:51:32.961Z,0.30
2023-01-27T10:54:30.371Z,0.40
2023-01-27T10:57:10.443Z,3.00
2023-01-27T10:59:40.120Z,2.10
2023-01-27T11:02:09.948Z,1.80
2023-01-27T11:04:52.153Z,1.50
2023-01-27T11:07:21.544Z,1.20
2023-01-27T11:10:02.355Z,1.00
2023-01-27T11:12:37.528Z,1.10
2023-01-27T11:15:35.894Z,1.00
2023-01-27T11:18:12.445Z,1.10
2023-01-27T11:20:47.030Z,1.00
2023-01-27T11:23:28.079Z,0.90
2023-01-27T11:26:13.045Z,0.80
2023-01-27T11:28:53.773Z,0.90
2023-01-27T11:31:26.586Z,1.10
2023-01-27T11:33:55.113Z,1.20
2023-01-27T11:36:21.975Z,1.10
2023-01-27T11:38:48.860Z,1.00
2023-01-27T11:41:15.751Z,0.80
2023-01-27T11:43:43.287Z,0.80
2023-01-27T11:46:16.432Z,0.80
2023-01-27T11:48:48.021Z,0.80
2023-01-27T11:51:21.080Z,0.90
2023-01-27T11:54:06.778Z,0.90
2023-01-27T11:56:36.386Z,0.90
2023-01-27T11:59:11.133Z,0.70
2023-01-27T12:01:53.215Z,0.80
2023-01-27T12:04:38.640Z,1.10
2023-01-27T12:07:07.352Z,1.00
2023-01-27T12:09:39.781Z,1.10
2023-01-27T12:12:19.316Z,1.10
2023-01-27T12:15:05.407Z,1.20
2023-01-27T12:17:41.099Z,1.20
2023-01-27T12:20:33.165Z,1.30
2023-01-27T12:23:20.239Z,1.30
2023-01-27T12:25:54.293Z,1.20
2023-01-27T12:28:29.583Z,1.10
2023-01-27T12:31:20.779Z,1.10
2023-01-27T12:33:58.779Z,1.10
2023-01-27T12:36:28.069Z,1.10
2023-01-27T12:39:01.138Z,1.20
2023-01-27T12:41:38.450Z,1.30
2023-01-27T12:44:15.130Z,1.40
2023-01-27T12:46:59.242Z,1.60
2023-01-27T12:49:35.535Z,1.50
2023-01-27T12:52:05.000Z,1.50
2023-01-27T12:54:32.975Z,1.40
2023-01-27T12:57:07.141Z,1.30
2023-01-27T12:59:35.259Z,1.30
2023-01-27T13:02:32.321Z,1.20
2023-01-27T13:05:02.282Z,1.30
2023-01-27T13:07:44.347Z,1.30
2023-01-27T13:10:20.471Z,1.30
2023-01-27T13:12:56.374Z,1.20
2023-01-27T13:15:29.345Z,1.30
2023-01-27T13:17:58.078Z,1.30
2023-01-27T13:20:40.748Z,1.40
2023-01-27T13:23:21.181Z,1.50
2023-01-27T13:26:06.082Z,1.50
2023-01-27T13:28:51.653Z,1.50
2023-01-27T13:31:52.619Z,1.40
2023-01-27T13:34:42.551Z,1.30
2023-01-27T13:37:33.155Z,1.30
2023-01-27T13:40:18.633Z,1.20
2023-01-27T13:42:54.709Z,1.10
2023-01-27T13:45:32.686Z,1.00
2023-01-27T13:48:12.356Z,1.00
2023-01-27T13:51:04.450Z,1.00
2023-01-27T13:53:31.447Z,0.90
2023-01-27T13:56:33.486Z,0.80
2023-01-27T13:59:26.442Z,0.70
2023-01-27T14:02:00.592Z,0.70
2023-01-27T14:05:13.589Z,0.70
2023-01-27T14:08:13.810Z,0.70
2023-01-27T14:10:45.337Z,0.70
2023-01-27T14:13:35.980Z,0.60
2023-01-27T14:16:10.157Z,0.60
2023-01-27T14:18:42.509Z,0.50
2023-01-27T14:21:43.428Z,0.40
2023-01-27T14:24:20.643Z,0.40
2023-01-27T14:26:55.527Z,0.30
2023-01-27T14:29:50.011Z,0.30
2023-01-27T14:32:26.585Z,0.30
2023-01-27T14:35:21.187Z,0.40
2023-01-27T14:38:15.612Z,0.40
2023-01-27T14:41:07.729Z,0.40
2023-01-27T14:44:16.881Z,0.50
2023-01-27T14:47:06.987Z,0.40
2023-01-27T14:50:04.620Z,0.40
2023-01-27T14:52:52.396Z,0.40
2023-01-27T14:55:47.288Z,0.40
2023-01-27T14:58:29.104Z,0.30
2023-01-27T15:01:12.876Z,0.30
2023-01-27T15:04:10.111Z,0.30
2023-01-27T15:06:42.633Z,0.30
2023-01-27T15:09:20.329Z,0.30
2023-01-27T15:12:17.964Z,0.30
2023-01-27T15:15:17.023Z,0.30
2023-01-27T15:17:55.810Z,0.30
2023-01-27T15:20:46.714Z,0.20
2023-01-27T15:23:16.282Z,0.20
2023-01-27T15:25:56.738Z,0.20
2023-01-27T15:28:30.978Z,0.20
2023-01-27T15:31:19.456Z,0.20
2023-01-27T15:33:55.530Z,0.20
2023-01-27T15:36:28.457Z,0.20
2023-01-27T15:39:10.103Z,0.10
2023-01-27T15:42:01.676Z,0.10
2023-01-27T15:44:33.649Z,0.10
2023-01-27T15:47:21.848Z,0.00
2023-01-27T15:50:02.481Z,0.00
2023-01-27T15:52:33.472Z,0.10
2023-01-27T15:55:02.912Z,0.00
2023-01-27T15:57:39.236Z,0.00
2023-01-27T16:00:22.160Z,0.00
2023-01-27T16:02:54.467Z,0.00
2023-01-27T16:05:26.234Z,0.00
2023-01-27T16:08:00.880Z,0.00
2023-01-27T16:10:35.332Z,0.00
2023-01-27T16:13:26.118Z,0.10
2023-01-27T16:16:17.834Z,0.10
2023-01-27T16:18:48.079Z,0.10
2023-01-27T16:21:42.070Z,0.10
2023-01-27T16:24:21.169Z,0.00
2023-01-27T16:26:54.373Z,0.00
2023-01-27T16:29:38.540Z,0.00
2023-01-27T16:32:30.062Z,0.00
2023-01-27T16:35:05.103Z,0.00
2023-01-27T16:37:36.627Z,0.00
2023-01-27T16:40:22.557Z,0.00
2023-01-27T16:42:52.420Z,0.00
2023-01-27T16:45:25.075Z,-0.10
2023-01-27T16:47:54.647Z,-0.10
2023-01-27T16:50:35.916Z,-0.10
2023-01-27T16:53:05.552Z,-0.10
2023-01-27T16:55:32.359Z,-0.10
2023-01-27T16:58:01.312Z,-0.10
2023-01-27T17:00:32.524Z,-0.10
2023-01-27T17:03:03.770Z,-0.10
2023-01-27T17:05:30.813Z,-0.10
2023-01-27T17:08:23.734Z,-0.10
2023-01-27T17:11:16.418Z,-0.10
2023-01-27T17:13:53.247Z,-0.10
2023-01-27T17:16:29.311Z,0.00
2023-01-27T17:19:13.902Z,0.00
2023-01-27T17:21:53.288Z,-0.10
2023-01-27T17:24:27.540Z,-0.10
2023-01-27T17:27:20.710Z,-0.10
2023-01-27T17:29:49.733Z,-0.10
2023-01-27T17:32:29.190Z,-0.10
2023-01-27T17:34:59.351Z,-0.10
2023-01-27T17:37:26.654Z,-0.10
2023-01-27T17:39:57.045Z,-0.10
2023-01-27T17:42:30.167Z,-0.10
2023-01-27T17:45:26.870Z,-0.10
2023-01-27T17:47:54.486Z,-0.10
2023-01-27T17:50:24.886Z,-0.10
2023-01-27T17:52:53.863Z,-0.10
2023-01-27T17:55:22.413Z,-0.10
2023-01-27T17:57:51.453Z,-0.10
2023-01-27T18:00:18.628Z,-0.10
2023-01-27T18:02:56.876Z,-0.10
2023-01-27T18:05:30.991Z,0.00
2023-01-27T18:07:58.121Z,0.00
2023-01-27T18:10:36.754Z,-0.10
2023-01-27T18:13:27.354Z,-0.10
2023-01-27T18:16:12.696Z,0.00
2023-01-27T18:18:39.623Z,0.00
2023-01-27T18:21:09.416Z,-0.10
2023-01-27T18:23:43.360Z,0.00
2023-01-27T18:26:28.317Z,-0.10
2023-01-27T18:28:59.887Z,0.00
2023-01-27T18:31:34.440Z,-0.10
2023-01-27T18:34:05.621Z,-0.10
2023-01-27T18:36:35.695Z,0.00
2023-01-27T18:39:06.086Z,-0.10
2023-01-27T18:41:35.380Z,0.00
2023-01-27T18:44:02.185Z,0.00
2023-01-27T18:46:29.172Z,0.00
2023-01-27T18:48:56.086Z,0.00
2023-01-27T18:51:23.105Z,0.00
2023-01-27T18:53:50.111Z,-0.10
2023-01-27T18:56:17.045Z,0.00
2023-01-27T18:58:43.804Z,-0.10
2023-01-27T19:01:19.854Z,-0.10
2023-01-27T19:03:46.677Z,-0.10
2023-01-27T19:06:16.671Z,-0.20
2023-01-27T19:08:44.303Z,-0.20
2023-01-27T19:11:15.666Z,-0.10
2023-01-27T19:13:46.004Z,-0.20
2023-01-27T19:16:16.373Z,-0.20
2023-01-27T19:18:44.579Z,-0.20
2023-01-27T19:21:16.620Z,-0.20
2023-01-27T19:23:44.864Z,-0.30
2023-01-27T19:26:17.675Z,-0.20
2023-01-27T19:28:47.664Z,-0.30
2023-01-27T19:31:14.580Z,-0.30
2023-01-27T19:33:44.078Z,-0.30
2023-01-27T19:36:32.421Z,-0.40
2023-01-27T19:39:20.096Z,-0.40
2023-01-27T19:41:47.162Z,-0.40
2023-01-27T19:44:14.716Z,-0.40
2023-01-27T19:46:43.073Z,-0.50
2023-01-27T19:49:17.867Z,-0.40
2023-01-27T19:51:44.815Z,-0.50
2023-01-27T19:54:12.107Z,-0.50
2023-01-27T19:56:38.937Z,-0.50
2023-01-27T19:59:05.766Z,-0.50
2023-01-27T20:01:32.590Z,-0.50
2023-01-27T20:03:59.439Z,-0.50
2023-01-27T20:06:31.355Z,-0.50
2023-01-27T20:08:59.917Z,-0.50
2023-01-27T20:11:32.924Z,-0.50
2023-01-27T20:14:01.112Z,-0.50
2023-01-27T20:16:29.322Z,-0.50
2023-01-27T20:18:57.074Z,-0.50
2023-01-27T20:21:26.654Z,-0.50
2023-01-27T20:23:53.883Z,-0.50
2023-01-27T20:26:22.541Z,-0.50
2023-01-27T20:28:49.643Z,-0.60
2023-01-27T20:31:19.642Z,-0.50
2023-01-27T20:33:50.294Z,-0.50
2023-01-27T20:36:23.966Z,-0.50
2023-01-27T20:38:53.001Z,-0.50
2023-01-27T20:41:22.019Z,-0.50
2023-01-27T20:43:49.132Z,-0.50
2023-01-27T20:46:17.628Z,-0.50
2023-01-27T20:48:44.485Z,-0.40
2023-01-27T20:51:13.956Z,-0.40
2023-01-27T20:53:45.609Z,-0.50
2023-01-27T20:56:18.030Z,-0.40
2023-01-27T20:58:45.596Z,-0.40
2023-01-27T21:01:14.652Z,-0.40
2023-01-27T21:03:42.250Z,-0.40
2023-01-27T21:06:11.081Z,-0.40
2023-01-27T21:08:38.400Z,-0.50
2023-01-27T21:11:07.274Z,-0.50
2023-01-27T21:13:34.062Z,-0.50
2023-01-27T21:16:02.192Z,-0.50
2023-01-27T21:18:29.503Z,-0.50
2023-01-27T21:20:59.450Z,-0.50
2023-01-27T21:23:31.779Z,-0.50
2023-01-27T21:26:04.400Z,-0.50
2023-01-27T21:28:33.857Z,-0.60
2023-01-27T21:31:13.785Z,-0.60
2023-01-27T21:33:41.301Z,-0.60
2023-01-27T21:36:10.734Z,-0.60
2023-01-27T21:38:38.438Z,-0.60
2023-01-27T21:41:34.785Z,-0.60
2023-01-27T21:44:20.809Z,-0.60
2023-01-27T21:46:47.734Z,-0.60
2023-01-27T21:49:14.901Z,-0.60
2023-01-27T21:51:42.779Z,-0.60
2023-01-27T21:54:10.036Z,-0.60
2023-01-27T21:56:36.814Z,-0.70
2023-01-27T21:59:03.708Z,-0.60
2023-01-27T22:01:31.737Z,-0.60
2023-01-27T22:03:58.797Z,-0.70
2023-01-27T22:06:25.655Z,-0.70
2023-01-27T22:08:52.501Z,-0.60
2023-01-27T22:11:19.666Z,-0.60
2023-01-27T22:13:46.981Z,-0.60
2023-01-27T22:16:17.143Z,-0.60
2023-01-27T22:18:44.440Z,-0.60
2023-01-27T22:21:11.347Z,-0.60
2023-01-27T22:23:38.166Z,-0.60
2023-01-27T22:26:07.878Z,-0.70
2023-01-27T22:28:34.733Z,-0.80
2023-01-27T22:31:02.221Z,-0.80
2023-01-27T22:33:29.283Z,-0.80
2023-01-27T22:36:04.405Z,-0.80
2023-01-27T22:38:31.400Z,-0.80
2023-01-27T22:40:59.195Z,-0.80
2023-01-27T22:43:26.142Z,-0.80
2023-01-27T22:45:53.047Z,-0.80
2023-01-27T22:48:20.040Z,-0.80
2023-01-27T22:50:46.893Z,-0.80
2023-01-27T22:53:13.887Z,-0.80
2023-01-27T22:55:40.669Z,-0.90
2023-01-27T22:58:08.784Z,-0.90
2023-01-27T23:00:36.044Z,-0.90
2023-01-27T23:03:02.949Z,-0.80
2023-01-27T23:05:29.753Z,-0.80
2023-01-27T23:07:56.549Z,-0.80
2023-01-27T23:10:23.757Z,-0.80
2023-01-27T23:12:50.607Z,-0.80
2023-01-27T23:15:17.605Z,-0.90
2023-01-27T23:17:44.628Z,-0.90
2023-01-27T23:20:12.009Z,-1.00
2023-01-27T23:22:38.921Z,-0.90
2023-01-27T23:25:06.644Z,-0.90
2023-01-27T23:27:33.965Z,-0.90
2023-01-27T23:30:00.811Z,-0.90
2023-01-27T23:32:27.573Z,-0.90
2023-01-27T23:34:54.363Z,-0.90
2023-01-27T23:37:21.129Z,-1.00
2023-01-27T23:39:49.681Z,-0.90
2023-01-27T23:42:17.605Z,-0.90
2023-01-27T23:44:44.665Z,-1.00
2023-01-27T23:47:12.521Z,-0.90
2023-01-27T23:49:39.339Z,-0.90
2023-01-27T23:52:06.265Z,-0.90
2023-01-27T23:54:33.298Z,-1.00
2023-01-27T23:57:00.587Z,-1.00
2023-01-27T23:59:27.435Z,-1.00
